Time;durP1;ratioP1;P1;durP2;ratioP2;P2;SDS_P1;SDS_P2;PMS_P1;PMS_P2;Temp;Humidity;BMP_temperature;BMP_pressure;BME280_temperature;BME280_humidity;BME280_pressure;Samples;Min_cycle;Max_cycle;Signal;HPM_P1;HPM_P2
2021/07/03 00:00:36;;;;;;;11.93;7.60;;;15.30;86.60;;;;;;5048736;28;20048;-65
2021/07/03 00:03:02;;;;;;;11.38;7.38;;;15.30;86.50;;;;;;5049244;28;20115;-65
2021/07/03 00:05:28;;;;;;;10.73;7.32;;;15.30;86.50;;;;;;5041129;28;20106;-64
2021/07/03 00:07:54;;;;;;;10.45;7.18;;;15.20;86.60;;;;;;5050818;28;20508;-65
2021/07/03 00:10:21;;;;;;;9.77;6.80;;;15.20;86.60;;;;;;5051867;28;20597;-66
2021/07/03 00:12:47;;;;;;;12.90;7.32;;;15.20;86.70;;;;;;5051900;28;20046;-65
2021/07/03 00:15:20;;;;;;;12.80;7.13;;;15.10;86.60;;;;;;5049688;28;20173;-64
2021/07/03 00:17:47;;;;;;;10.10;7.60;;;15.10;86.80;;;;;;5049362;28;20028;-65
2021/07/03 00:20:13;;;;;;;9.85;7.15;;;15.10;86.80;;;;;;5050316;28;20021;-65
2021/07/03 00:22:38;;;;;;;13.02;7.15;;;15.10;86.90;;;;;;5050562;28;20142;-64
2021/07/03 00:25:06;;;;;;;9.90;6.97;;;15.10;86.90;;;;;;5049615;28;20094;-66
2021/07/03 00:27:31;;;;;;;9.93;6.88;;;15.10;86.90;;;;;;5035393;28;20048;-65
2021/07/03 00:29:58;;;;;;;13.82;7.57;;;15.10;86.90;;;;;;5047314;28;20033;-65
2021/07/03 00:32:23;;;;;;;11.30;7.18;;;15.10;87.00;;;;;;5043196;28;20071;-66
2021/07/03 00:34:49;;;;;;;8.48;6.53;;;15.00;87.00;;;;;;5050225;28;20037;-65
2021/07/03 00:37:16;;;;;;;10.35;6.43;;;15.00;87.00;;;;;;5047224;28;20393;-66
2021/07/03 00:39:42;;;;;;;9.27;6.25;;;14.90;87.00;;;;;;5047568;28;20100;-65
2021/07/03 00:42:08;;;;;;;14.13;6.38;;;14.90;87.10;;;;;;5045369;28;20132;-65
2021/07/03 00:44:36;;;;;;;9.30;6.25;;;14.90;87.10;;;;;;5042446;28;20029;-65
2021/07/03 00:47:03;;;;;;;8.23;6.38;;;14.90;87.30;;;;;;5045149;28;20025;-65
2021/07/03 00:49:29;;;;;;;9.27;5.60;;;14.90;87.30;;;;;;5051361;28;20493;-65
2021/07/03 00:51:54;;;;;;;9.38;7.03;;;14.90;87.40;;;;;;5048596;28;20041;-66
2021/07/03 00:54:21;;;;;;;8.07;6.10;;;14.90;87.40;;;;;;5049478;28;20477;-65
2021/07/03 00:57:01;;;;;;;7.32;5.90;;;14.80;87.30;;;;;;5048329;28;20432;-65
2021/07/03 00:59:35;;;;;;;8.15;5.90;;;14.80;87.50;;;;;;5045934;28;20377;-66
2021/07/03 01:02:02;;;;;;;10.52;7.00;;;14.80;87.60;;;;;;5047771;28;20021;-65
2021/07/03 01:04:28;;;;;;;11.38;7.13;;;14.80;87.50;;;;;;5046072;28;20052;-64
2021/07/03 01:06:54;;;;;;;9.07;6.70;;;14.80;87.50;;;;;;5048713;28;20063;-64
2021/07/03 01:09:20;;;;;;;10.70;6.82;;;14.80;87.70;;;;;;5032724;28;20025;-65
2021/07/03 01:11:45;;;;;;;10.35;7.30;;;14.70;87.60;;;;;;5050419;28;20143;-66
2021/07/03 01:14:11;;;;;;;11.35;6.88;;;14.70;87.80;;;;;;5048715;28;20094;-65
2021/07/03 01:16:37;;;;;;;10.95;7.35;;;14.70;88.00;;;;;;5047787;28;20033;-65
2021/07/03 01:19:02;;;;;;;10.73;7.40;;;14.70;87.90;;;;;;5050399;28;20033;-65
2021/07/03 01:21:29;;;;;;;10.40;7.53;;;14.70;88.00;;;;;;5044176;28;20035;-64
2021/07/03 01:23:55;;;;;;;15.55;8.02;;;14.70;88.00;;;;;;5048483;28;20051;-65
2021/07/03 01:26:21;;;;;;;15.68;7.80;;;14.60;87.90;;;;;;5043738;28;20032;-64
2021/07/03 01:28:47;;;;;;;11.60;7.70;;;14.60;88.00;;;;;;5046989;28;20072;-66
2021/07/03 01:31:13;;;;;;;13.18;7.00;;;14.60;88.10;;;;;;5047465;28;20434;-65
2021/07/03 01:33:41;;;;;;;9.48;7.10;;;14.60;88.10;;;;;;5048272;28;20067;-65
2021/07/03 01:36:06;;;;;;;11.38;7.63;;;14.60;88.20;;;;;;5029598;28;20091;-66
2021/07/03 01:38:32;;;;;;;11.57;7.32;;;14.50;88.10;;;;;;5050204;28;20702;-66
2021/07/03 01:40:58;;;;;;;9.32;7.30;;;14.50;88.20;;;;;;5049561;28;20382;-66
2021/07/03 01:43:29;;;;;;;11.48;7.57;;;14.40;88.20;;;;;;5040144;28;20018;-66
2021/07/03 01:45:56;;;;;;;13.40;8.70;;;14.40;88.50;;;;;;5039783;28;20032;-66
2021/07/03 01:48:23;;;;;;;12.75;8.07;;;14.30;88.40;;;;;;5046699;28;20021;-66
2021/07/03 01:50:49;;;;;;;12.77;7.85;;;14.30;88.70;;;;;;5032389;28;20397;-64
2021/07/03 01:53:14;;;;;;;12.15;8.35;;;14.20;88.70;;;;;;5048258;28;20025;-64
2021/07/03 01:55:40;;;;;;;14.60;9.00;;;14.20;88.90;;;;;;5048389;28;20021;-65
2021/07/03 01:58:05;;;;;;;11.65;8.00;;;14.20;88.90;;;;;;5046373;28;20025;-66
2021/07/03 02:00:31;;;;;;;13.07;8.55;;;14.10;89.00;;;;;;5042821;28;20470;-64
2021/07/03 02:02:56;;;;;;;13.32;8.45;;;14.00;89.20;;;;;;5037582;28;20472;-66
2021/07/03 02:05:22;;;;;;;12.77;8.80;;;14.00;89.20;;;;;;5025929;28;20048;-65
2021/07/03 02:07:48;;;;;;;13.38;8.40;;;14.00;89.30;;;;;;5044998;28;20481;-65
2021/07/03 02:10:13;;;;;;;13.15;9.02;;;14.00;89.40;;;;;;5048032;28;20021;-64
2021/07/03 02:12:41;;;;;;;13.73;8.80;;;14.00;89.40;;;;;;5046916;28;20392;-67
2021/07/03 02:15:07;;;;;;;15.25;9.57;;;14.00;89.40;;;;;;5046826;28;20035;-65
2021/07/03 02:17:32;;;;;;;14.73;9.35;;;14.10;89.50;;;;;;5027795;28;20021;-66
2021/07/03 02:19:58;;;;;;;16.50;9.25;;;14.10;89.90;;;;;;5028084;28;20036;-66
2021/07/03 02:22:24;;;;;;;16.23;10.20;;;14.10;89.40;;;;;;5041786;28;20033;-65
2021/07/03 02:24:49;;;;;;;18.05;9.38;;;14.00;89.30;;;;;;5044518;28;20485;-66
2021/07/03 02:27:15;;;;;;;16.08;9.15;;;14.00;89.50;;;;;;5047197;28;20108;-67
2021/07/03 02:29:42;;;;;;;14.02;9.73;;;13.90;89.50;;;;;;5044863;28;20107;-66
2021/07/03 02:32:07;;;;;;;17.75;9.10;;;13.90;89.50;;;;;;5046121;28;20029;-66
2021/07/03 02:34:33;;;;;;;15.93;9.13;;;13.90;89.70;;;;;;5047008;28;20037;-66
2021/07/03 02:36:59;;;;;;;13.02;8.30;;;13.90;89.70;;;;;;5045141;28;20111;-66
2021/07/03 02:39:24;;;;;;;15.57;8.60;;;13.90;89.90;;;;;;5046298;28;20108;-66
2021/07/03 02:41:50;;;;;;;15.05;9.50;;;13.90;90.00;;;;;;5045497;28;20024;-66
2021/07/03 02:44:15;;;;;;;15.73;10.00;;;13.90;89.90;;;;;;5044256;28;20048;-66
2021/07/03 02:46:41;;;;;;;16.50;10.18;;;13.90;89.90;;;;;;5045851;28;20029;-66
2021/07/03 02:49:07;;;;;;;16.67;10.15;;;13.90;89.90;;;;;;5045146;28;20240;-66
2021/07/03 02:51:32;;;;;;;19.80;11.55;;;13.90;90.10;;;;;;5046957;28;20035;-65
2021/07/03 02:53:58;;;;;;;17.23;11.05;;;13.90;90.00;;;;;;5049095;28;20037;-66
2021/07/03 02:56:23;;;;;;;22.10;10.93;;;13.90;90.00;;;;;;5047161;28;20033;-66
2021/07/03 02:58:49;;;;;;;16.35;10.95;;;13.80;90.00;;;;;;5045237;28;20025;-66
2021/07/03 03:01:15;;;;;;;19.70;11.20;;;13.80;90.00;;;;;;5045892;28;20044;-65
2021/07/03 03:03:43;;;;;;;15.65;10.98;;;13.80;90.10;;;;;;5046652;28;20027;-66
2021/07/03 03:06:11;;;;;;;23.30;11.52;;;13.80;90.10;;;;;;5047448;28;20028;-66
2021/07/03 03:08:36;;;;;;;19.23;11.18;;;13.80;90.10;;;;;;5047861;28;20029;-66
2021/07/03 03:11:02;;;;;;;17.48;10.13;;;13.70;90.10;;;;;;5046843;28;20037;-66
2021/07/03 03:13:28;;;;;;;15.48;10.63;;;13.70;90.10;;;;;;5049071;28;20070;-66
2021/07/03 03:15:53;;;;;;;21.02;11.02;;;13.60;90.20;;;;;;5045647;28;20394;-66
2021/07/03 03:18:19;;;;;;;18.08;10.93;;;13.60;90.20;;;;;;5045810;28;20388;-64
2021/07/03 03:20:45;;;;;;;16.65;9.82;;;13.60;90.30;;;;;;5049272;28;20032;-66
2021/07/03 03:23:10;;;;;;;15.02;9.88;;;13.60;90.50;;;;;;5049525;28;20028;-66
2021/07/03 03:25:36;;;;;;;18.25;10.55;;;13.60;90.30;;;;;;5050250;28;20024;-66
2021/07/03 03:28:02;;;;;;;17.15;10.77;;;13.50;90.30;;;;;;5051635;28;20033;-66
2021/07/03 03:30:28;;;;;;;18.55;10.88;;;13.50;90.30;;;;;;5045037;28;20524;-65
2021/07/03 03:32:53;;;;;;;18.48;10.90;;;13.50;90.30;;;;;;5051955;28;20036;-66
2021/07/03 03:35:19;;;;;;;17.98;10.45;;;13.50;90.30;;;;;;5048157;28;20025;-66
2021/07/03 03:37:44;;;;;;;16.33;9.70;;;13.50;90.30;;;;;;5049563;28;20037;-65
2021/07/03 03:40:11;;;;;;;18.42;9.73;;;13.50;90.30;;;;;;5045354;28;20040;-66
2021/07/03 03:42:37;;;;;;;13.90;9.07;;;13.40;90.40;;;;;;5049755;28;20071;-66
2021/07/03 03:45:05;;;;;;;12.32;8.30;;;13.40;90.40;;;;;;5047998;28;20021;-65
2021/07/03 03:47:30;;;;;;;13.23;8.15;;;13.40;90.40;;;;;;5051074;28;20036;-67
2021/07/03 03:52:24;;;;;;;9.77;6.65;;;13.40;90.50;;;;;;5061553;28;20041;-67
2021/07/03 03:54:49;;;;;;;11.52;6.60;;;13.30;90.50;;;;;;5069908;28;20032;-67
2021/07/03 03:57:21;;;;;;;11.98;6.90;;;13.40;90.60;;;;;;5069857;28;20415;-67
2021/07/03 03:59:48;;;;;;;9.93;5.85;;;13.30;90.50;;;;;;5069303;28;20057;-66
2021/07/03 04:02:14;;;;;;;9.98;6.22;;;13.30;90.50;;;;;;5069005;28;20081;-67
2021/07/03 04:04:40;;;;;;;11.57;6.72;;;13.30;90.50;;;;;;5066099;28;20435;-67
2021/07/03 04:07:05;;;;;;;10.15;7.03;;;13.20;90.50;;;;;;5069322;28;20020;-67
2021/07/03 04:09:31;;;;;;;10.85;7.28;;;13.20;90.50;;;;;;5075857;28;20199;-66
2021/07/03 04:11:56;;;;;;;11.13;6.45;;;13.20;90.60;;;;;;5058028;28;20020;-67
2021/07/03 04:14:22;;;;;;;10.85;6.43;;;13.20;90.60;;;;;;5071890;28;20029;-67
2021/07/03 04:16:48;;;;;;;9.57;6.45;;;13.20;90.60;;;;;;5069963;28;20029;-67
2021/07/03 04:19:13;;;;;;;9.45;6.43;;;13.30;90.60;;;;;;5069055;28;20107;-66
2021/07/03 04:21:39;;;;;;;8.13;6.38;;;13.30;90.70;;;;;;5067449;28;20103;-67
2021/07/03 04:24:05;;;;;;;9.40;6.70;;;13.30;90.70;;;;;;5072142;28;20029;-67
2021/07/03 04:26:30;;;;;;;9.20;6.72;;;13.30;90.70;;;;;;5069200;28;20118;-66
2021/07/03 04:28:56;;;;;;;9.77;5.63;;;13.30;90.60;;;;;;5067939;28;20028;-67
2021/07/03 04:31:22;;;;;;;12.70;6.85;;;13.40;90.70;;;;;;5069449;28;20024;-67
2021/07/03 04:33:47;;;;;;;11.82;7.35;;;13.40;90.70;;;;;;5068456;28;20579;-67
2021/07/03 04:36:13;;;;;;;9.27;6.32;;;13.30;90.60;;;;;;5065765;28;20028;-67
2021/07/03 04:38:38;;;;;;;9.65;6.75;;;13.30;90.60;;;;;;5068940;28;20032;-67
2021/07/03 04:41:04;;;;;;;12.65;6.95;;;13.30;90.70;;;;;;5067666;28;20129;-67
2021/07/03 04:43:30;;;;;;;11.30;6.80;;;13.30;90.70;;;;;;5069021;28;20024;-67
2021/07/03 04:45:55;;;;;;;9.35;6.60;;;13.30;90.60;;;;;;5069656;28;20056;-68
2021/07/03 04:48:21;;;;;;;9.77;6.15;;;13.20;90.70;;;;;;5070188;28;20029;-67
2021/07/03 04:50:47;;;;;;;10.88;6.80;;;13.20;90.70;;;;;;5070978;28;20103;-67
2021/07/03 04:53:12;;;;;;;9.77;6.88;;;13.20;90.80;;;;;;5054892;28;20537;-68
2021/07/03 04:55:38;;;;;;;10.45;6.68;;;13.30;90.80;;;;;;5080905;28;20025;-67
2021/07/03 04:58:04;;;;;;;12.93;6.78;;;13.30;90.80;;;;;;5068287;28;20040;-67
2021/07/03 05:00:29;;;;;;;9.95;6.28;;;13.30;90.80;;;;;;5068772;28;20051;-68
2021/07/03 05:02:55;;;;;;;10.50;6.63;;;13.30;90.80;;;;;;5067086;28;20679;-68
2021/07/03 05:05:20;;;;;;;9.18;6.15;;;13.40;90.90;;;;;;5069661;28;20025;-68
2021/07/03 05:07:46;;;;;;;13.32;6.13;;;13.50;90.90;;;;;;5068872;28;20020;-68
2021/07/03 05:10:12;;;;;;;9.77;6.50;;;13.50;90.90;;;;;;5081669;28;20078;-68
2021/07/03 05:12:38;;;;;;;10.85;7.05;;;13.60;90.90;;;;;;5065271;28;20024;-68
2021/07/03 05:15:04;;;;;;;10.80;7.15;;;13.70;90.90;;;;;;5069580;28;20089;-68
2021/07/03 05:17:30;;;;;;;11.68;7.05;;;13.70;90.90;;;;;;5066643;28;20686;-68
2021/07/03 05:19:56;;;;;;;11.23;7.38;;;13.80;90.80;;;;;;5067989;28;20031;-68
2021/07/03 05:22:22;;;;;;;11.93;7.75;;;13.90;90.90;;;;;;5056107;28;20024;-68
2021/07/03 05:24:48;;;;;;;11.00;7.22;;;13.90;90.90;;;;;;5068028;28;20043;-69
2021/07/03 05:27:14;;;;;;;12.65;7.60;;;14.00;90.90;;;;;;5074409;28;20451;-69
2021/07/03 05:29:39;;;;;;;11.88;7.05;;;14.10;91.00;;;;;;5066834;28;20155;-68
2021/07/03 05:32:05;;;;;;;8.38;6.82;;;14.10;91.00;;;;;;5073114;28;20047;-68
2021/07/03 05:34:31;;;;;;;11.30;7.38;;;14.20;91.10;;;;;;5066572;28;20380;-69
2021/07/03 05:36:57;;;;;;;10.38;7.03;;;14.30;91.20;;;;;;5068686;28;20101;-68
2021/07/03 05:39:23;;;;;;;13.07;7.28;;;14.40;91.20;;;;;;5080660;28;20436;-68
2021/07/03 05:41:49;;;;;;;11.57;6.97;;;14.40;91.20;;;;;;5069310;28;20110;-68
2021/07/03 05:44:15;;;;;;;10.65;7.22;;;14.50;91.20;;;;;;5066617;28;20024;-68
2021/07/03 05:46:41;;;;;;;10.77;7.70;;;14.60;91.30;;;;;;5068674;28;20507;-68
2021/07/03 05:49:07;;;;;;;11.10;7.20;;;14.70;91.30;;;;;;5071955;28;20028;-68
2021/07/03 05:51:32;;;;;;;10.60;6.20;;;14.80;91.20;;;;;;5069366;28;20043;-69
2021/07/03 05:53:58;;;;;;;12.30;8.20;;;15.00;91.30;;;;;;5065940;28;20051;-69
2021/07/03 05:56:26;;;;;;;9.95;7.40;;;15.00;91.20;;;;;;5069409;28;20074;-68
2021/07/03 05:58:52;;;;;;;10.85;7.97;;;15.20;91.20;;;;;;5066681;28;20027;-68
2021/07/03 06:01:17;;;;;;;8.35;6.95;;;15.40;91.20;;;;;;5078073;28;20115;-69
2021/07/03 06:03:43;;;;;;;10.45;7.78;;;15.50;91.10;;;;;;5068183;28;20028;-68
2021/07/03 06:06:10;;;;;;;9.38;7.20;;;15.70;91.00;;;;;;5068185;28;20028;-68
2021/07/03 06:08:35;;;;;;;12.07;7.28;;;15.80;90.90;;;;;;5054276;28;20388;-68
2021/07/03 06:11:01;;;;;;;11.50;7.10;;;15.90;90.80;;;;;;5068989;28;20024;-70
2021/07/03 06:13:27;;;;;;;11.55;7.13;;;16.00;90.70;;;;;;5069738;28;20115;-75
2021/07/03 06:15:52;;;;;;;10.45;6.45;;;16.10;90.70;;;;;;5068156;28;20107;-75
2021/07/03 06:18:18;;;;;;;9.48;7.15;;;16.20;90.60;;;;;;5064517;28;20056;-75
2021/07/03 06:20:44;;;;;;;11.32;7.22;;;16.30;90.50;;;;;;5071860;28;20024;-69
2021/07/03 06:23:10;;;;;;;11.18;7.00;;;16.30;90.30;;;;;;5071593;28;20017;-69
2021/07/03 06:25:35;;;;;;;8.13;6.22;;;16.40;90.30;;;;;;5067562;28;20044;-69
2021/07/03 06:28:01;;;;;;;12.05;6.90;;;16.50;90.20;;;;;;5040500;28;20025;-69
2021/07/03 06:30:27;;;;;;;11.38;6.90;;;16.60;90.20;;;;;;5068098;28;20029;-69
2021/07/03 06:32:52;;;;;;;9.10;6.57;;;16.80;90.00;;;;;;5077251;28;20511;-69
2021/07/03 06:35:18;;;;;;;12.73;6.60;;;17.00;89.80;;;;;;5084137;28;20036;-69
2021/07/03 06:37:43;;;;;;;9.77;6.30;;;17.10;89.70;;;;;;5078857;28;20039;-70
2021/07/03 06:40:10;;;;;;;9.55;5.97;;;17.30;89.50;;;;;;5073659;28;20439;-69
2021/07/03 06:42:35;;;;;;;8.40;5.72;;;17.50;88.80;;;;;;5067490;28;20029;-68
2021/07/03 06:45:01;;;;;;;8.13;5.55;;;17.60;88.00;;;;;;5068526;28;20029;-68
2021/07/03 06:47:27;;;;;;;7.45;5.50;;;17.80;87.70;;;;;;5074266;28;20024;-68
2021/07/03 06:49:53;;;;;;;7.15;5.78;;;17.90;86.90;;;;;;5076712;28;20032;-70
2021/07/03 06:52:18;;;;;;;8.77;5.95;;;18.00;86.50;;;;;;5051641;28;20051;-68
2021/07/03 06:54:44;;;;;;;7.70;5.75;;;18.20;86.00;;;;;;5069695;28;20032;-69
2021/07/03 06:57:12;;;;;;;7.55;5.60;;;18.40;86.00;;;;;;5072018;28;20507;-69
2021/07/03 06:59:37;;;;;;;6.68;5.18;;;18.60;86.00;;;;;;5075306;28;20043;-69
2021/07/03 07:02:03;;;;;;;8.00;4.90;;;18.90;85.10;;;;;;5065032;28;20028;-69
2021/07/03 07:04:29;;;;;;;7.65;4.82;;;19.10;84.20;;;;;;5080602;28;20051;-69
2021/07/03 07:06:56;;;;;;;7.70;5.13;;;19.30;83.60;;;;;;5082559;28;20103;-71
2021/07/03 07:09:24;;;;;;;7.50;4.93;;;19.50;82.50;;;;;;5077954;28;20032;-70
2021/07/03 07:11:50;;;;;;;7.38;5.38;;;19.50;81.60;;;;;;5073346;28;20438;-68
2021/07/03 07:14:15;;;;;;;6.45;5.32;;;19.70;81.60;;;;;;5073166;28;20643;-69
2021/07/03 07:16:41;;;;;;;5.78;4.78;;;19.70;81.20;;;;;;5054725;28;20030;-70
2021/07/03 07:19:07;;;;;;;7.47;5.03;;;19.80;80.60;;;;;;5073141;28;20392;-69
2021/07/03 07:21:33;;;;;;;8.40;5.15;;;19.90;80.90;;;;;;5072850;28;20020;-70
2021/07/03 07:23:59;;;;;;;7.43;5.63;;;20.30;80.90;;;;;;5085671;28;20088;-70
2021/07/03 07:26:25;;;;;;;5.70;5.10;;;20.60;80.50;;;;;;5075833;28;20100;-69
2021/07/03 07:28:51;;;;;;;6.53;4.95;;;20.80;79.20;;;;;;5074527;28;20088;-70
2021/07/03 07:31:18;;;;;;;6.07;4.93;;;20.90;78.20;;;;;;5073335;28;20456;-69
2021/07/03 07:33:44;;;;;;;5.78;4.43;;;21.00;78.10;;;;;;5073543;28;20052;-68
2021/07/03 07:36:10;;;;;;;5.40;4.38;;;21.20;77.70;;;;;;5077545;28;20062;-70
2021/07/03 07:38:36;;;;;;;6.78;4.50;;;21.30;76.80;;;;;;5083615;28;20480;-68
2021/07/03 07:41:02;;;;;;;5.43;4.35;;;21.50;76.60;;;;;;5078487;28;20039;-69
2021/07/03 07:43:27;;;;;;;5.38;4.15;;;21.80;76.20;;;;;;5054566;28;20472;-70
2021/07/03 07:45:55;;;;;;;6.15;5.35;;;21.90;75.10;;;;;;5076317;28;20024;-70
2021/07/03 07:48:27;;;;;;;8.75;4.85;;;22.00;74.80;;;;;;5079598;28;20364;-69
2021/07/03 07:50:56;;;;;;;6.07;4.77;;;22.20;74.40;;;;;;5074428;28;20098;-68
2021/07/03 07:53:22;;;;;;;4.90;4.00;;;22.40;74.70;;;;;;5072814;28;20271;-69
2021/07/03 07:55:47;;;;;;;4.43;4.00;;;22.70;73.60;;;;;;5054585;28;20037;-68
2021/07/03 07:58:13;;;;;;;6.15;4.50;;;22.90;72.90;;;;;;5073125;28;20024;-69
2021/07/03 08:00:38;;;;;;;5.13;4.10;;;23.20;71.40;;;;;;5077427;28;20075;-67
2021/07/03 08:03:04;;;;;;;6.22;4.05;;;23.50;71.20;;;;;;5073803;28;20032;-69
2021/07/03 08:05:30;;;;;;;5.47;3.90;;;23.60;69.50;;;;;;5071416;28;20027;-68
2021/07/03 08:07:56;;;;;;;4.85;3.88;;;23.80;68.90;;;;;;5071132;28;20035;-68
2021/07/03 08:10:21;;;;;;;4.25;3.55;;;24.00;68.90;;;;;;5072185;28;20025;-67
2021/07/03 08:12:48;;;;;;;5.40;4.00;;;24.50;67.20;;;;;;5072253;28;20035;-67
2021/07/03 08:15:14;;;;;;;3.63;3.33;;;24.90;65.50;;;;;;5071461;28;20026;-69
2021/07/03 08:17:44;;;;;;;6.85;5.22;;;25.10;64.20;;;;;;5071957;28;20082;-68
2021/07/03 08:20:15;;;;;;;4.90;3.58;;;25.40;63.70;;;;;;5072086;28;20541;-68
2021/07/03 08:22:41;;;;;;;6.70;3.60;;;25.60;61.70;;;;;;5084796;28;20020;-68
2021/07/03 08:25:07;;;;;;;4.00;3.60;;;25.70;61.70;;;;;;5091472;28;20370;-68
2021/07/03 08:27:32;;;;;;;4.43;3.90;;;25.60;61.50;;;;;;5077669;28;20129;-68
2021/07/03 08:29:58;;;;;;;4.25;3.85;;;25.70;60.10;;;;;;5071970;28;20070;-68
2021/07/03 08:32:23;;;;;;;4.03;3.60;;;25.90;60.60;;;;;;5076954;28;20024;-68
2021/07/03 08:34:49;;;;;;;4.65;4.13;;;26.20;61.00;;;;;;5070914;28;20060;-68
2021/07/03 08:37:15;;;;;;;6.40;3.75;;;26.80;60.10;;;;;;5071443;28;20032;-68
2021/07/03 08:39:40;;;;;;;7.55;3.92;;;27.20;59.30;;;;;;5071969;28;20099;-68
2021/07/03 08:42:06;;;;;;;5.78;3.83;;;27.80;58.80;;;;;;5072124;28;20025;-68
2021/07/03 08:44:32;;;;;;;4.88;3.95;;;28.30;57.40;;;;;;5071136;28;20461;-67
2021/07/03 08:46:58;;;;;;;3.90;3.50;;;28.80;55.40;;;;;;5071102;28;20127;-69
2021/07/03 08:49:23;;;;;;;5.30;3.35;;;29.30;53.10;;;;;;5071561;28;20056;-69
2021/07/03 08:51:50;;;;;;;8.40;3.70;;;29.40;51.50;;;;;;5076831;28;20043;-69
2021/07/03 08:54:15;;;;;;;6.18;3.45;;;29.80;50.60;;;;;;5091828;28;20489;-69
2021/07/03 08:56:42;;;;;;;6.75;3.72;;;30.00;49.80;;;;;;5071387;28;20064;-68
2021/07/03 08:59:21;;;;;;;4.07;3.67;;;30.30;48.70;;;;;;5071789;28;20027;-68
2021/07/03 09:01:51;;;;;;;4.00;3.67;;;30.50;48.50;;;;;;5053411;28;20027;-68
2021/07/03 09:04:17;;;;;;;3.88;3.10;;;31.00;47.70;;;;;;5070817;28;20039;-67
2021/07/03 09:06:42;;;;;;;3.50;3.15;;;31.50;47.00;;;;;;5070439;28;20032;-67
2021/07/03 09:09:08;;;;;;;3.53;3.20;;;32.00;45.90;;;;;;5054742;28;20629;-69
2021/07/03 09:11:34;;;;;;;3.95;3.58;;;32.10;45.40;;;;;;5072736;28;20078;-69
2021/07/03 09:14:05;;;;;;;3.88;3.33;;;32.40;44.70;;;;;;5071911;28;20070;-68
2021/07/03 09:16:34;;;;;;;5.93;3.60;;;32.50;43.20;;;;;;5069989;28;20039;-68
2021/07/03 09:19:00;;;;;;;2.92;2.63;;;32.50;42.70;;;;;;5060721;28;20036;-68
2021/07/03 09:21:27;;;;;;;3.42;2.80;;;32.40;42.50;;;;;;5070275;28;20024;-67
2021/07/03 09:23:52;;;;;;;3.40;2.90;;;32.40;42.20;;;;;;5072876;28;20063;-69
2021/07/03 09:26:18;;;;;;;3.88;3.25;;;32.30;41.50;;;;;;5065224;28;20445;-71
2021/07/03 09:28:46;;;;;;;5.30;3.03;;;32.30;42.10;;;;;;5074912;28;20420;-71
2021/07/03 09:31:13;;;;;;;5.10;3.38;;;32.40;42.40;;;;;;5074505;28;20028;-71
2021/07/03 09:33:50;;;;;;;4.25;2.65;;;32.80;42.30;;;;;;5076089;28;20024;-70
2021/07/03 09:36:34;;;;;;;4.38;2.90;;;33.30;41.00;;;;;;5073857;28;20032;-71
2021/07/03 09:39:00;;;;;;;3.83;3.08;;;33.30;40.20;;;;;;5067771;28;20033;-71
2021/07/03 09:41:30;;;;;;;3.78;3.03;;;33.20;40.10;;;;;;5068543;28;20162;-71
2021/07/03 09:44:07;;;;;;;3.13;2.93;;;33.00;39.70;;;;;;5069956;28;20021;-71
2021/07/03 09:46:33;;;;;;;4.35;3.17;;;33.00;40.50;;;;;;5068861;28;20387;-71
2021/07/03 09:49:08;;;;;;;4.50;2.95;;;33.20;40.50;;;;;;5070176;28;20029;-70
2021/07/03 09:51:36;;;;;;;3.38;2.95;;;33.30;40.50;;;;;;5069511;28;20028;-70
2021/07/03 09:54:03;;;;;;;4.45;2.72;;;33.50;40.50;;;;;;5094006;22;20043;-66
2021/07/03 09:56:29;;;;;;;2.92;2.70;;;33.40;40.00;;;;;;5062780;28;20039;-72
2021/07/03 09:58:55;;;;;;;3.58;3.25;;;33.00;40.20;;;;;;5089939;28;20020;-66
2021/07/03 10:01:21;;;;;;;2.97;2.78;;;32.90;40.70;;;;;;5089620;28;20100;-68
2021/07/03 10:03:47;;;;;;;3.30;3.00;;;32.80;40.90;;;;;;5088440;28;20020;-66
2021/07/03 10:06:19;;;;;;;5.45;3.15;;;32.90;44.30;;;;;;5069951;28;20020;-67
2021/07/03 10:08:48;;;;;;;3.67;3.38;;;32.90;43.90;;;;;;5089902;28;20159;-67
2021/07/03 10:11:20;;;;;;;5.20;3.13;;;32.70;43.70;;;;;;5089941;28;20140;-68
2021/07/03 10:13:47;;;;;;;5.10;3.15;;;32.30;44.30;;;;;;5080223;28;20051;-66
2021/07/03 10:16:20;;;;;;;3.08;2.88;;;31.60;43.70;;;;;;5087417;28;20052;-67
2021/07/03 10:18:46;;;;;;;4.18;3.05;;;31.00;45.60;;;;;;5082854;28;20082;-68
2021/07/03 10:21:16;;;;;;;5.43;2.83;;;30.70;47.60;;;;;;5082277;28;20025;-67
2021/07/03 10:23:44;;;;;;;4.78;3.10;;;30.70;49.30;;;;;;5083822;28;20024;-68
2021/07/03 10:26:10;;;;;;;3.40;3.10;;;30.70;47.60;;;;;;5069103;28;20027;-67
2021/07/03 10:28:39;;;;;;;5.15;3.17;;;30.60;48.20;;;;;;5088904;28;20091;-68
2021/07/03 10:31:11;;;;;;;5.78;3.25;;;30.40;47.40;;;;;;5090224;28;20066;-68
2021/07/03 10:33:41;;;;;;;3.22;2.95;;;30.10;46.20;;;;;;5082020;28;20020;-67
2021/07/03 10:36:07;;;;;;;3.80;3.40;;;29.50;46.40;;;;;;5093815;28;20024;-68
2021/07/03 10:38:41;;;;;;;3.70;3.28;;;29.30;47.10;;;;;;5094134;28;20101;-66
2021/07/03 10:41:10;;;;;;;4.95;3.00;;;28.80;47.30;;;;;;5093779;28;20054;-66
2021/07/03 10:43:46;;;;;;;3.50;3.15;;;28.50;50.20;;;;;;5092969;28;20046;-66
2021/07/03 10:46:23;;;;;;;3.67;3.38;;;28.40;49.60;;;;;;5075200;28;20032;-65
2021/07/03 10:49:05;;;;;;;4.93;3.55;;;28.40;50.10;;;;;;5093571;28;20044;-66
2021/07/03 10:51:33;;;;;;;3.95;3.40;;;28.40;49.70;;;;;;5093994;28;20395;-64
2021/07/03 10:54:18;;;;;;;4.38;3.80;;;28.40;49.00;;;;;;5087636;28;20686;-64
2021/07/03 10:56:47;;;;;;;4.32;3.38;;;28.20;48.90;;;;;;5065749;28;20444;-65
2021/07/03 10:59:15;;;;;;;3.85;3.35;;;28.10;50.20;;;;;;5094131;28;20028;-65
2021/07/03 11:01:41;;;;;;;3.80;3.50;;;28.00;50.30;;;;;;5088045;28;20018;-64
2021/07/03 11:04:15;;;;;;;3.80;3.33;;;28.00;50.50;;;;;;5093730;28;20020;-66
2021/07/03 11:06:48;;;;;;;4.22;3.83;;;27.90;49.40;;;;;;5093068;28;20028;-65
2021/07/03 11:09:26;;;;;;;4.47;3.83;;;27.80;49.30;;;;;;5075498;28;20032;-64
2021/07/03 11:11:55;;;;;;;3.80;3.50;;;27.60;50.40;;;;;;5084738;28;20031;-65
2021/07/03 11:14:22;;;;;;;7.07;4.50;;;27.60;50.60;;;;;;5082933;28;20020;-66
2021/07/03 11:16:58;;;;;;;5.50;3.67;;;27.50;50.50;;;;;;5078508;28;20021;-65
2021/07/03 11:19:26;;;;;;;4.43;3.97;;;27.40;50.00;;;;;;5073717;28;20027;-67
2021/07/03 11:22:03;;;;;;;4.05;3.63;;;27.00;50.40;;;;;;5073583;28;20025;-64
2021/07/03 11:24:48;;;;;;;6.82;4.15;;;26.60;51.10;;;;;;5084136;28;20031;-64
2021/07/03 11:27:37;;;;;;;4.25;3.70;;;26.30;52.10;;;;;;5093295;28;20062;-65
2021/07/03 11:30:18;;;;;;;8.27;3.80;;;26.40;52.10;;;;;;5094029;28;20107;-67
2021/07/03 11:32:49;;;;;;;3.83;3.53;;;26.60;53.00;;;;;;5090769;28;20027;-66
2021/07/03 11:35:14;;;;;;;3.88;3.47;;;26.50;51.60;;;;;;5092278;28;20063;-67
2021/07/03 11:37:40;;;;;;;5.50;3.67;;;26.30;52.00;;;;;;5093529;28;20059;-66
2021/07/03 11:40:09;;;;;;;3.83;3.42;;;26.30;53.60;;;;;;5093240;28;20063;-66
2021/07/03 11:42:42;;;;;;;4.28;3.88;;;26.30;54.60;;;;;;5092044;28;20032;-65
2021/07/03 11:45:09;;;;;;;5.85;3.17;;;26.30;53.70;;;;;;5074344;28;20035;-65
2021/07/03 11:48:09;;;;;;;4.50;3.50;;;26.40;55.40;;;;;;5092447;28;20104;-67
2021/07/03 11:50:38;;;;;;;3.55;3.13;;;26.50;54.30;;;;;;5093203;28;20085;-66
2021/07/03 11:53:05;;;;;;;5.35;3.42;;;26.70;54.90;;;;;;5092101;28;20050;-66
2021/07/03 11:55:40;;;;;;;4.32;3.78;;;26.60;53.80;;;;;;5073601;28;20032;-65
2021/07/03 11:58:11;;;;;;;4.63;4.00;;;26.30;54.10;;;;;;5093133;28;20073;-66
2021/07/03 12:00:37;;;;;;;6.13;3.90;;;26.30;55.10;;;;;;5093408;28;20077;-68
2021/07/03 12:03:09;;;;;;;4.15;3.63;;;26.30;55.80;;;;;;5092741;28;20434;-68
2021/07/03 12:05:38;;;;;;;3.85;3.55;;;26.30;56.70;;;;;;5092312;28;20023;-66
2021/07/03 12:08:07;;;;;;;4.22;3.70;;;26.40;57.10;;;;;;5092677;28;20028;-66
2021/07/03 12:10:43;;;;;;;4.53;4.10;;;26.40;57.70;;;;;;5074171;28;20480;-65
2021/07/03 12:13:21;;;;;;;4.75;4.00;;;26.40;56.50;;;;;;5092385;28;20039;-66
2021/07/03 12:16:11;;;;;;;6.22;4.60;;;26.30;55.90;;;;;;5086545;28;20046;-65
2021/07/03 12:18:53;;;;;;;9.68;4.93;;;26.30;56.60;;;;;;5096478;28;20038;-65
2021/07/03 12:21:23;;;;;;;4.40;4.00;;;26.20;57.30;;;;;;5085757;28;20067;-66
2021/07/03 12:23:49;;;;;;;4.80;3.75;;;26.20;57.10;;;;;;5085362;28;20092;-66
2021/07/03 12:26:21;;;;;;;4.47;3.88;;;26.10;57.20;;;;;;5064516;28;20024;-65
2021/07/03 12:29:05;;;;;;;;;;;26.00;56.50;;;;;;5093007;28;20028;-65
2021/07/03 12:31:42;;;;;;;4.10;3.60;;;26.00;57.30;;;;;;5092790;28;19965;-65
2021/07/03 12:34:12;;;;;;;4.97;3.58;;;25.90;58.10;;;;;;5073886;28;20024;-67
2021/07/03 12:36:44;;;;;;;3.60;3.30;;;25.90;57.40;;;;;;5091440;28;20019;-68
2021/07/03 12:39:18;;;;;;;4.35;3.95;;;25.80;56.90;;;;;;5092025;28;20073;-65
2021/07/03 12:41:46;;;;;;;3.92;3.53;;;25.70;57.70;;;;;;5091732;28;20096;-66
2021/07/03 12:44:13;;;;;;;5.15;3.78;;;25.70;57.00;;;;;;5092202;28;20020;-67
2021/07/03 12:46:41;;;;;;;4.55;4.15;;;25.60;58.40;;;;;;5091187;28;20024;-68